METAR Data
IDs: Format: Raw Decoded Include TAF

Data at: 1447 UTC 25 Jan 2020

METAR for:KCWI (Clinton Muni, IA, US)
Text:KCWI 251356Z AUTO 28016KT 5SM BR OVC010 00/M01 A2989 RMK AO2 SLP132 T00001011 FZRANO
Temperature: 0.0°C ( 32°F)
Dewpoint: -1.1°C ( 30°F) [RH = 92%]
Pressure (altimeter):29.89 inches Hg (1012.3 mb) [Sea level pressure: 1013.2 mb]
Winds:from the W (280 degrees) at 18 MPH (16 knots; 8.2 m/s)
Visibility: 5 sm ( 8 km)
Ceiling:1000 feet AGL
Clouds: overcast cloud deck at 1000 feet AGL
Weather:BR (mist)
QC Flag:automated observation with no human augmentation